Grass Range, MT

8:12 PM MDT on September 02, 2014 (GMT -0600)
MesoWest Lewistown Divide MT-200 MP 90.3 MT US MT DOT | Change Station
CLOSE
Current Station
Personal Weather Station
Location: Lewistown, MT
Elevation: 4624 ft
Nearby Weather Stations

Elev 4624 ft 47.06 °N, 109.18 °W | Updated 31 minutes ago

Clear
Clear
60 °F
Feels Like 60 °F
N
8
Wind Variable Wind from East
Gusts 11.0 mph

Today
High -- | Low -- °F
--% Chance of Precip.
Yesterday
High -- | Low -- °F
Precip. -- in
6:36 AM 7:53 PM
First Quarter, 57% visible
Pressure 29.68 in
Visibility 10.0 miles
Clouds Clear
Dew Point 41 °F
Humidity 49%
Rainfall 0.00 in
Snow Depth Not available.
UV 0 out of 12
Pollen 7.80 out of 12
Air Quality Not available.
Flu Activity Not available.
METAR KLWT 030154Z AUTO 10008KT 10SM CLR 18/07 A2974 RMK AO2 SLP051 T01780067

More Conditions Fewer Conditions

Pressure 29.68 in
Visibility 10.0 miles
Clouds Clear
Dew Point 41 °F
Humidity 49%
Rainfall 0.00 in
Snow Depth Not available.
UV 0 out of 12
Pollen 7.80 out of 12
Air Quality Not available.
Flu Activity Not available.
METAR KLWT 030154Z AUTO 10008KT 10SM CLR 18/07 A2974 RMK AO2 SLP051 T01780067

More Conditions Fewer Conditions

10-Day Weather Forecast

Almanac

Astronomy

Sep. 02, 2014 Rise Set
Actual Time 6:36 AM MDT 7:53 PM MDT
Civil Twilight 6:04 AM MDT 8:24 PM MDT
Nautical Twilight 5:26 AM MDT 9:02 PM MDT
Astronomical Twilight 4:46 AM MDT 9:42 PM MDT
Moon 2:51 PM MDT (9/2) No Moon Set
Length of Visible Light 14h 19m
Length of Day
13h 16m
Tomorrow will be 3m 16s shorter.
First Quarter, 57% of the Moon is Illuminated
Today
First Quarter
Sep 8
Full
Sep 15
Last Quarter
Sep 24
New
Oct 1
First Quarter

Today's Extremes

State Highs State Lows

Community

WunderPhotos

Upload Photos

1,749,841 photos uploaded!

Nearby

Snow Depth

Station Depth Elevation
Crystal Lake 0 in 6050 ft
Spur Park 0 in 8100 ft
Porcupine 0 in 6500 ft
South Fork Shields 0 in 8100 ft
White Mill 1 in 8700 ft

Earthquake Activity

City Distance Mag. Time & Date
No recent earthquake activity has been reported nearby.
Minimum magnitude displayed is 2.5.

Coastal Water Temperatures

Place Temperature
No Stations Reporting

Nearby Weather Stations